Latest Weather Observations for Evans Head

IDN60801

Issued at 2:03 pm EST Thursday 25 August 2016 (issued every 30 minutes, with the page automatically refreshed every 10 minutes)

About weather observations | Map of weather stations | Latest weather observations for NSW | Other Formats
Station Details ID: 058212 Name: EVANS HEAD RAAF BOMBING RANGE AWS Lat: -29.18 Lon: 153.40 Height: 62.5 m
Data from the previous 72 hours. | See also: Recent months at Evans Head
Date/Time
EST
Temp
°C
App
Temp
°C
Dew
Point
°C
Rel
Hum
%
Delta-T
°C
Wind Press
QNH
hPa
Press
MSL
hPa
Rain since
9am
mm
Dir  Spd
km/h
Gust
km/h
Spd
kts
Gust
kts
25/02:00pm 19.5 15.6 7.3 45 6.2 WSW 17 30 9 16 1009.0 1008.9 0.0
25/01:30pm 19.0 14.5 6.2 43 6.4 WSW 19 30 10 16 1008.9 1008.8 0.0
25/01:00pm 18.6 14.0 5.8 43 6.3 W 19 32 10 17 1009.1 1009.0 0.0
25/12:30pm 19.0 15.3 7.8 48 5.7 WSW 17 39 9 21 1009.2 1009.1 0.0
25/12:00pm 18.8 14.4 7.6 48 5.7 WNW 20 35 11 19 1009.5 1009.4 0.0
25/11:30am 18.0 13.7 6.8 48 5.6 W 19 33 10 18 1009.8 1009.7 0.0
25/11:00am 17.4 13.6 7.5 52 5.0 W 17 28 9 15 1010.0 1009.9 0.0
25/10:30am 16.9 13.0 7.0 52 4.9 WSW 17 33 9 18 1010.2 1010.1 0.0
25/10:00am 16.8 12.6 8.2 57 4.4 W 20 32 11 17 1010.2 1010.1 0.0
25/09:30am 16.4 13.3 8.9 61 3.9 W 15 28 8 15 1010.2 1010.1 0.0
25/09:00am 15.7 12.4 9.6 67 3.2 WNW 17 32 9 17 1009.9 1009.8 -
25/08:30am 15.0 12.1 9.8 71 2.7 NW 15 24 8 13 1009.8 1009.7 -
25/08:00am 14.3 11.2 10.3 77 2.1 NW 17 28 9 15 1009.5 1009.4 -
25/07:30am 13.0 10.1 10.9 87 1.1 NW 17 24 9 13 1009.0 1008.9 -
25/07:00am - - - - - - - - - - 1008.6 1008.5 -
25/06:30am - - - - - - - - - - 1008.1 1008.0 -
25/06:00am - - - - - - - - - - 1007.9 1007.8 -
25/05:30am 11.4 9.7 11.1 98 0.2 N 11 15 6 8 1007.5 1007.4 22.6
25/05:00am 12.2 10.3 11.7 97 0.3 NW 13 22 7 12 1006.6 1006.5 22.6
25/04:30am 12.7 10.9 12.2 97 0.3 NW 13 20 7 11 1006.0 1005.9 22.6
25/04:00am 12.7 11.4 12.4 98 0.2 NNW 11 15 6 8 1006.8 1006.7 22.6
25/03:30am 13.3 10.6 12.8 97 0.3 NW 19 28 10 15 1005.8 1005.7 22.6
25/03:00am 13.6 11.4 13.3 98 0.2 NW 17 26 9 14 1004.5 1004.4 22.6
25/02:30am 13.9 12.6 13.7 99 0.1 WNW 13 17 7 9 1004.6 1004.5 22.6
25/02:00am 14.1 11.5 13.9 99 0.1 NW 20 32 11 17 1005.5 1005.4 22.6
25/01:30am 14.3 12.1 14.3 100 0.0 NW 19 28 10 15 1005.6 1005.5 22.6
25/01:00am 14.1 11.8 14.1 100 0.0 NW 19 30 10 16 1005.7 1005.6 22.6
25/12:30am 13.7 13.2 13.7 100 0.0 NNW 9 22 5 12 1006.2 1006.1 22.6
25/12:00am 13.3 14.0 13.3 100 0.0 WNW 2 9 1 5 1005.8 1005.7 22.6
 
Date/Time
EST
Temp
°C
App
Temp
°C
Dew
Point
°C
Rel
Hum
%
Delta-T
°C
Wind Press
QNH
hPa
Press
MSL
hPa
Rain since
9am
mm
Dir  Spd
km/h
Gust
km/h
Spd
kts
Gust
kts
24/11:30pm 13.3 14.0 13.3 100 0.0 NW 2 9 1 5 1004.4 1004.3 22.6
24/11:00pm 13.3 13.0 13.3 100 0.0 NNW 7 9 4 5 1005.1 1005.0 22.6
24/10:30pm 13.8 12.9 13.8 100 0.0 NNW 11 19 6 10 1005.5 1005.4 22.6
24/10:00pm 13.6 12.7 13.6 100 0.0 NNW 11 19 6 10 1006.2 1006.1 22.6
24/09:30pm 13.4 13.1 13.4 100 0.0 NNW 7 9 4 5 1006.4 1006.3 22.6
24/09:00pm 13.7 13.2 13.7 100 0.0 NNW 9 11 5 6 1006.2 1006.1 22.6
24/08:30pm 14.3 14.3 14.3 100 0.0 NNW 7 11 4 6 1006.3 1006.2 22.6
24/08:00pm 14.6 14.9 14.6 100 0.0 NW 6 7 3 4 1007.3 1007.2 22.4
24/07:30pm 14.8 14.3 14.8 100 0.0 NW 11 17 6 9 1007.4 1007.3 22.4
24/07:00pm 14.7 14.5 14.7 100 0.0 W 9 13 5 7 1007.5 1007.4 22.4
24/06:30pm 14.7 15.5 14.7 100 0.0 WNW 4 13 2 7 1006.6 1006.5 22.4
24/06:00pm 14.7 14.1 14.7 100 0.0 NW 11 17 6 9 1006.5 1006.4 22.4
24/05:30pm 14.8 13.9 14.8 100 0.0 NW 13 19 7 10 1006.9 1006.8 22.2
24/05:00pm 14.8 15.6 14.8 100 0.0 WNW 4 9 2 5 1006.1 1006.0 22.2
24/04:30pm 15.0 14.9 15.0 100 0.0 WNW 9 17 5 9 1007.0 1006.9 22.0
24/04:00pm 15.2 15.8 15.2 100 0.0 NW 6 9 3 5 1006.3 1006.2 21.8
24/03:30pm 15.0 14.2 15.0 100 0.0 SSE 13 22 7 12 1005.9 1005.8 21.2
24/03:00pm 14.8 14.6 14.8 100 0.0 SSW 9 15 5 8 1005.9 1005.8 21.0
24/02:30pm 14.8 13.5 14.8 100 0.0 SW 15 22 8 12 1007.6 1007.5 20.4
24/02:00pm 14.8 13.5 14.8 100 0.0 SW 15 20 8 11 1007.7 1007.6 18.8
24/01:30pm 15.0 13.8 15.0 100 0.0 SW 15 22 8 12 1007.7 1007.6 16.4
24/01:00pm 15.0 14.2 15.0 100 0.0 SW 13 22 7 12 1007.7 1007.6 14.0
24/12:30pm 15.3 14.9 15.3 100 0.0 SW 11 17 6 9 1007.6 1007.5 10.8
24/12:00pm 15.4 14.3 15.4 100 0.0 SSW 15 20 8 11 1007.9 1007.8 7.0
24/11:30am 15.7 13.0 15.5 99 0.1 SSE 24 33 13 18 1008.1 1008.0 4.6
24/11:00am 16.2 12.9 16.0 99 0.1 SSE 28 39 15 21 1008.4 1008.3 3.6
24/10:30am 16.4 13.2 16.4 100 0.0 SSE 28 50 15 27 1008.9 1008.8 3.6
24/10:24am 16.2 13.0 16.2 100 0.0 SSE 28 50 15 27 1009.1 1009.0 3.6
24/10:00am 15.6 12.9 15.6 100 0.0 SSE 24 35 13 19 1009.8 1009.7 3.2
24/09:30am 16.0 12.7 16.0 100 0.0 SSE 28 41 15 22 1010.3 1010.2 1.8
24/09:00am 15.9 12.9 15.9 100 0.0 SSE 26 39 14 21 1010.7 1010.7 44.6
24/08:30am 15.7 11.9 15.7 100 0.0 SSE 30 43 16 23 1010.6 1010.6 43.2
24/08:00am 15.9 12.5 15.9 100 0.0 SSE 28 43 15 23 1010.3 1010.2 41.0
24/07:30am 15.7 11.3 15.7 100 0.0 SSE 33 46 18 25 1009.8 1009.7 39.8
24/07:00am 15.7 11.3 15.7 100 0.0 SSE 33 46 18 25 1009.2 1009.1 39.8
24/06:37am 15.8 11.5 15.8 100 0.0 SSE 33 52 18 28 1009.7 1009.6 39.2
24/06:30am 15.6 10.4 15.6 100 0.0 SSE 37 52 20 28 1009.5 1009.4 39.0
24/06:00am 15.7 11.3 15.7 100 0.0 SSE 33 50 18 27 1009.9 1009.8 37.6
24/05:47am 15.9 12.2 15.9 100 0.0 SSE 30 48 16 26 1010.3 1010.2 36.4
24/05:30am 15.7 12.3 15.7 100 0.0 SSE 28 43 15 23 1010.5 1010.4 34.6
24/05:00am 15.8 13.2 15.8 100 0.0 SSE 24 33 13 18 1010.3 1010.2 32.4
24/04:30am 15.7 12.3 15.7 100 0.0 SSE 28 39 15 21 1009.9 1009.8 28.6
24/04:11am 15.8 11.6 15.8 100 0.0 SSE 32 50 17 27 1009.6 1009.5 26.0
24/04:00am 15.6 10.8 15.6 100 0.0 SSE 35 50 19 27 1009.2 1009.1 25.2
24/03:53am 15.8 12.0 15.8 100 0.0 SSE 30 50 16 27 1009.6 1009.5 24.4
24/03:30am 16.1 12.4 16.1 100 0.0 SSE 30 41 16 22 1009.6 1009.5 22.2
24/03:00am 15.9 12.5 15.9 100 0.0 S 28 46 15 25 1009.8 1009.7 19.8
24/02:59am 15.9 12.5 15.9 100 0.0 S 28 46 15 25 1009.9 1009.8 19.6
24/02:30am 15.9 13.3 15.9 100 0.0 SSE 24 33 13 18 1010.4 1010.3 16.8
24/02:00am 16.1 12.4 16.1 100 0.0 SSE 30 41 16 22 1010.8 1010.8 13.8
24/01:30am 16.6 13.1 16.6 100 0.0 SSE 30 44 16 24 1011.2 1011.2 11.8
24/01:00am 17.0 14.8 17.0 100 0.0 S 24 43 13 23 1011.2 1011.2 9.0
24/12:30am 17.1 18.3 16.9 99 0.1 W 6 9 3 5 1012.2 1012.2 4.6
24/12:00am 17.3 17.0 17.3 100 0.0 SSE 15 24 8 13 1012.3 1012.3 1.8
 
Date/Time
EST
Temp
°C
App
Temp
°C
Dew
Point
°C
Rel
Hum
%
Delta-T
°C
Wind Press
QNH
hPa
Press
MSL
hPa
Rain since
9am
mm
Dir  Spd
km/h
Gust
km/h
Spd
kts
Gust
kts
23/11:30pm 17.5 19.7 17.5 100 0.0 WNW 2 7 1 4 1012.7 1012.7 1.4
23/11:00pm 17.5 18.7 17.3 99 0.1 W 7 9 4 5 1013.3 1013.2 0.8
23/10:30pm 17.7 18.6 17.5 99 0.1 W 9 13 5 7 1013.4 1013.3 0.4
23/10:00pm 18.0 19.6 17.8 99 0.1 WSW 6 9 3 5 1013.6 1013.5 0.4
23/09:30pm 17.9 19.4 17.7 99 0.1 W 6 9 3 5 1013.5 1013.4 0.2
23/09:00pm 17.9 18.9 17.7 99 0.1 W 9 13 5 7 1013.8 1013.7 0.2
23/08:30pm 18.0 18.6 17.8 99 0.1 N 11 15 6 8 1013.6 1013.5 0.2
23/08:00pm 18.3 19.1 18.1 99 0.1 N 11 13 6 7 1013.4 1013.3 0.0
23/07:30pm 18.8 19.7 18.5 98 0.2 NNE 11 15 6 8 1013.3 1013.2 0.0
23/07:00pm 18.9 19.9 18.6 98 0.2 NNE 11 15 6 8 1013.4 1013.3 0.0
23/06:30pm 18.7 19.9 18.2 97 0.3 N 9 13 5 7 1012.9 1012.9 0.0
23/06:00pm 18.9 20.7 18.4 97 0.3 NNE 6 9 3 5 1012.8 1012.8 0.0
23/05:30pm 19.2 20.3 18.0 93 0.7 N 9 13 5 7 1012.5 1012.5 0.0
23/05:00pm 20.3 21.4 16.5 79 2.3 NE 6 7 3 4 1012.3 1012.3 0.0
23/04:30pm 21.0 23.2 16.6 76 2.7 CALM 0 6 0 3 1011.8 1011.8 0.0
23/04:00pm 22.5 24.8 17.6 74 3.0 NNW 2 7 1 4 1011.9 1011.9 0.0
23/03:30pm 22.2 23.7 18.0 77 2.6 NNW 7 13 4 7 1011.7 1011.7 0.0
23/03:00pm 22.1 23.5 17.7 76 2.7 NNW 7 9 4 5 1011.5 1011.5 0.0
23/02:30pm 22.6 23.2 16.9 70 3.5 NNW 9 19 5 10 1011.3 1011.3 0.0
23/02:00pm 23.1 23.4 18.0 73 3.2 NNW 13 19 7 10 1011.6 1011.6 0.0
23/01:30pm 23.2 22.9 16.5 66 4.1 NNW 13 20 7 11 1011.4 1011.4 0.0
23/01:00pm 23.0 23.6 17.7 72 3.3 NNW 11 19 6 10 1012.1 1012.1 0.0
23/12:30pm 21.2 22.3 18.8 86 1.5 WSW 11 19 6 10 1012.7 1012.7 0.0
23/12:00pm 21.4 21.8 18.2 82 2.0 NW 13 19 7 10 1013.3 1013.2 0.0
23/11:30am 21.1 21.2 17.5 80 2.2 NW 13 24 7 13 1013.7 1013.6 0.0
23/11:00am 22.9 23.3 19.1 79 2.4 NNW 15 24 8 13 1013.9 1013.8 0.0
23/10:30am 22.1 22.3 19.3 84 1.8 NW 17 32 9 17 1013.8 1013.7 0.0
23/10:00am 21.2 21.8 19.5 90 1.1 NW 15 26 8 14 1013.8 1013.7 0.0
23/09:30am 20.9 21.4 19.2 90 1.1 NNW 15 22 8 12 1013.8 1013.7 0.0
23/09:00am 20.8 20.3 19.1 90 1.1 NNW 20 32 11 17 1013.5 1013.4 5.0
23/08:30am 19.6 20.4 19.1 97 0.3 NNW 13 24 7 13 1013.0 1013.0 5.0
23/08:00am 18.3 17.9 18.0 98 0.2 NNW 17 24 9 13 1013.1 1013.1 5.0
23/07:30am 16.8 16.6 16.8 100 0.0 NNW 13 19 7 10 1013.1 1013.1 5.0
23/07:00am 16.4 16.5 16.4 100 0.0 NNW 11 19 6 10 1013.3 1013.2 5.0
23/06:30am 14.6 14.0 14.6 100 0.0 NNW 11 15 6 8 1013.1 1013.1 5.0
23/06:00am 14.5 13.5 14.5 100 0.0 NNW 13 17 7 9 1012.9 1012.9 5.0
23/05:30am 14.3 13.1 14.1 99 0.1 NNW 13 19 7 10 1012.8 1012.8 5.0
23/05:00am 14.2 13.0 14.0 99 0.1 NNW 13 20 7 11 1012.5 1012.5 4.8
23/04:30am 14.6 13.2 14.4 99 0.1 NNW 15 20 8 11 1012.5 1012.5 4.8
23/04:00am 14.6 13.5 14.4 99 0.1 NNW 13 19 7 10 1012.4 1012.4 4.8
23/03:30am 14.8 13.4 14.6 99 0.1 NNW 15 19 8 10 1012.5 1012.5 4.8
23/03:00am 15.4 13.5 15.2 99 0.1 N 19 26 10 14 1012.7 1012.7 4.8
23/02:30am 15.3 14.5 15.1 99 0.1 N 13 19 7 10 1013.0 1013.0 4.8
23/02:00am 15.3 15.3 15.1 99 0.1 N 9 13 5 7 1013.6 1013.5 4.8
23/01:30am 15.5 16.1 15.3 99 0.1 WSW 6 7 3 4 1014.2 1014.1 4.6
23/01:00am 15.7 15.8 15.4 98 0.2 SW 9 13 5 7 1014.7 1014.6 3.0
23/12:30am 16.2 16.4 15.7 97 0.3 WSW 9 11 5 6 1014.9 1014.8 1.4
23/12:00am 17.1 18.0 16.5 96 0.4 WSW 7 9 4 5 1014.7 1014.6 0.2
 
Date/Time
EST
Temp
°C
App
Temp
°C
Dew
Point
°C
Rel
Hum
%
Delta-T
°C
Wind Press
QNH
hPa
Press
MSL
hPa
Rain since
9am
mm
Dir  Spd
km/h
Gust
km/h
Spd
kts
Gust
kts
22/11:30pm 17.7 18.3 15.7 88 1.2 W 7 11 4 6 1014.6 1014.5 0.0
22/11:00pm 17.6 18.0 15.4 87 1.3 NNW 7 11 4 6 1014.3 1014.2 0.0
22/10:30pm 18.1 16.7 15.5 85 1.5 N 17 28 9 15 1014.3 1014.2 0.0
22/10:00pm 18.3 16.3 15.6 84 1.6 N 20 32 11 17 1014.1 1014.0 0.0
22/09:30pm 18.2 15.8 15.5 84 1.6 N 22 37 12 20 1014.0 1013.9 0.0
22/09:00pm 18.1 16.6 16.3 89 1.1 N 19 32 10 17 1013.9 1013.8 0.0
22/08:30pm 18.1 16.0 16.3 89 1.1 N 22 35 12 19 1013.6 1013.5 0.0
22/08:00pm 18.2 16.2 16.4 89 1.1 N 22 30 12 16 1013.7 1013.6 0.0
22/07:30pm 18.3 16.2 16.3 88 1.2 N 22 32 12 17 1013.8 1013.7 0.0
22/07:00pm 18.1 16.3 17.0 93 0.7 N 22 33 12 18 1013.3 1013.2 0.0
22/06:30pm 18.0 16.0 16.5 91 0.9 N 22 37 12 20 1013.3 1013.2 0.0
22/06:00pm 18.1 15.6 15.2 83 1.7 N 22 32 12 17 1013.0 1013.0 0.0
22/05:30pm 18.4 15.3 14.5 78 2.3 N 24 35 13 19 1013.1 1013.1 0.0
22/05:00pm 19.1 16.9 14.8 76 2.5 NNE 20 30 11 16 1013.3 1013.2 0.0
22/04:30pm 19.8 16.3 14.6 72 3.0 NNE 26 43 14 23 1013.0 1013.0 0.0
22/04:00pm 20.7 17.2 14.6 68 3.6 NNE 26 44 14 24 1012.8 1012.8 0.0
22/03:30pm 21.1 17.4 15.0 68 3.6 NNE 28 44 15 24 1013.0 1013.0 0.0
22/03:00pm 21.8 17.9 15.4 67 3.8 NNE 30 48 16 26 1013.1 1013.1 0.0
22/02:55pm 21.8 17.8 15.2 66 3.9 NNE 30 48 16 26 1013.1 1013.1 0.0
22/02:30pm 22.3 19.0 14.9 63 4.4 NNE 26 43 14 23 1013.5 1013.4 0.0

Other Formats:

Comma delimited format used in spreadsheet applications
http://www.bom.gov.au/fwo/IDN60801/IDN60801.94598.axf

JavaScript Object Notation format (JSON) in row-major order
http://www.bom.gov.au/fwo/IDN60801/IDN60801.94598.json